Time;durP1;ratioP1;P1;durP2;ratioP2;P2;SDS_P1;SDS_P2;PMS_P1;PMS_P2;Temp;Humidity;BMP_temperature;BMP_pressure;BME280_temperature;BME280_humidity;BME280_pressure;Samples;Min_cycle;Max_cycle;Signal;HPM_P1;HPM_P2
2021/05/31 00:01:38;;;;;;;29.73;17.98;;;;;;;8.18;85.65;100633.78;4925172;29;20036;-70
2021/05/31 00:04:04;;;;;;;25.63;17.15;;;;;;;8.18;85.49;100636.47;4918183;28;20094;-68
2021/05/31 00:06:36;;;;;;;27.88;17.02;;;;;;;8.23;85.46;100635.84;4920857;29;20462;-68
2021/05/31 00:09:03;;;;;;;27.13;17.67;;;;;;;8.09;86.31;100635.00;4933277;29;20513;-68
2021/05/31 00:11:29;;;;;;;24.73;17.25;;;;;;;8.13;85.80;100630.03;4925190;29;20043;-68
2021/05/31 00:13:55;;;;;;;25.23;17.40;;;;;;;7.96;86.68;100624.25;4916162;29;20083;-68
2021/05/31 00:16:20;;;;;;;28.35;18.30;;;;;;;7.96;86.83;100614.31;4921072;29;20111;-69
2021/05/31 00:18:47;;;;;;;22.67;18.17;;;;;;;7.79;86.77;100621.91;4923570;29;20161;-68
2021/05/31 00:21:12;;;;;;;31.00;20.25;;;;;;;7.75;87.29;100621.50;4919759;29;20039;-68
2021/05/31 00:23:38;;;;;;;27.92;20.45;;;;;;;7.68;87.96;100628.72;4912096;28;20043;-68
2021/05/31 00:26:04;;;;;;;28.40;19.98;;;;;;;7.80;87.35;100628.13;4916475;28;20035;-68
2021/05/31 00:28:30;;;;;;;36.42;20.08;;;;;;;7.73;87.01;100626.25;4917904;29;20024;-68
2021/05/31 00:30:56;;;;;;;31.15;20.73;;;;;;;7.73;87.28;100620.03;4917360;29;20501;-68
2021/05/31 00:33:21;;;;;;;26.20;18.10;;;;;;;7.72;86.89;100618.38;4914103;29;20114;-68
2021/05/31 00:35:47;;;;;;;25.65;17.80;;;;;;;7.67;86.92;100615.47;4908411;28;20183;-68
2021/05/31 00:38:13;;;;;;;25.77;18.80;;;;;;;7.58;86.96;100610.31;4923359;29;20111;-68
2021/05/31 00:40:39;;;;;;;25.70;18.45;;;;;;;7.45;87.50;100607.56;4919897;29;20031;-68
2021/05/31 00:43:05;;;;;;;25.15;18.63;;;;;;;7.55;87.41;100612.56;4915314;29;20062;-68
2021/05/31 00:45:30;;;;;;;25.73;17.10;;;;;;;7.53;87.22;100612.75;4917238;29;20036;-68
2021/05/31 00:47:56;;;;;;;26.08;18.15;;;;;;;7.30;87.30;100618.47;4923089;29;20036;-68
2021/05/31 00:50:22;;;;;;;24.45;17.85;;;;;;;7.37;87.00;100619.31;4919994;29;20028;-68
2021/05/31 00:52:48;;;;;;;21.88;16.70;;;;;;;7.38;86.31;100622.81;4921596;29;20493;-68
2021/05/31 00:55:14;;;;;;;26.73;17.92;;;;;;;7.26;86.67;100618.00;4909419;29;20042;-68
2021/05/31 00:57:40;;;;;;;21.27;17.50;;;;;;;7.08;87.29;100615.88;4926561;29;20031;-68
2021/05/31 01:00:08;;;;;;;25.58;19.10;;;;;;;7.17;87.08;100612.00;4921297;29;20040;-69
2021/05/31 01:02:33;;;;;;;24.05;18.65;;;;;;;7.26;86.96;100618.00;4919500;29;20115;-69
2021/05/31 01:04:59;;;;;;;24.50;17.92;;;;;;;7.35;86.18;100612.50;4903625;29;20536;-69
2021/05/31 01:07:35;;;;;;;24.02;17.17;;;;;;;7.26;85.59;100611.84;4924497;28;20090;-69
2021/05/31 01:10:14;;;;;;;22.33;17.15;;;;;;;7.31;85.41;100612.88;4925984;29;20124;-68
2021/05/31 01:13:00;;;;;;;22.35;16.60;;;;;;;7.24;84.94;100609.34;4926980;29;20051;-69
2021/05/31 01:15:30;;;;;;;21.80;16.50;;;;;;;7.05;85.43;100613.56;4916760;29;20052;-68
2021/05/31 01:18:07;;;;;;;23.67;16.45;;;;;;;7.12;85.17;100616.28;4925680;29;20063;-69
2021/05/31 01:21:01;;;;;;;23.15;15.02;;;;;;;7.05;84.91;100612.75;4922147;29;20042;-68
2021/05/31 01:23:30;;;;;;;20.13;15.32;;;;;;;7.05;84.87;100610.06;4918652;29;20523;-68
2021/05/31 01:26:13;;;;;;;24.15;15.70;;;;;;;6.95;85.03;100608.59;4917524;29;20040;-68
2021/05/31 01:28:47;;;;;;;22.58;15.07;;;;;;;7.08;84.79;100604.31;4916331;28;20073;-68
2021/05/31 01:31:16;;;;;;;21.85;15.93;;;;;;;7.07;84.80;100602.66;4915516;29;20453;-68
2021/05/31 01:33:42;;;;;;;18.90;15.38;;;;;;;7.05;84.66;100602.84;4895496;29;20798;-68
2021/05/31 01:36:09;;;;;;;25.05;16.15;;;;;;;7.06;84.87;100603.69;4904788;29;20039;-69
2021/05/31 01:38:38;;;;;;;23.15;16.35;;;;;;;7.14;84.97;100608.88;4917461;29;20031;-69
2021/05/31 01:41:04;;;;;;;22.98;16.88;;;;;;;7.14;84.26;100600.84;4904591;29;20042;-68
2021/05/31 01:43:31;;;;;;;23.55;17.83;;;;;;;6.93;84.93;100602.59;4909661;29;20059;-68
2021/05/31 01:46:00;;;;;;;22.95;16.15;;;;;;;7.09;84.55;100606.81;4912872;28;20054;-68
2021/05/31 01:48:26;;;;;;;27.20;17.35;;;;;;;7.18;83.92;100600.28;4923790;28;20040;-69
2021/05/31 01:50:52;;;;;;;26.15;17.80;;;;;;;7.11;84.31;100593.22;4926399;28;20042;-68
2021/05/31 01:53:18;;;;;;;22.25;16.25;;;;;;;7.16;84.03;100593.44;4919762;29;20040;-69
2021/05/31 01:55:44;;;;;;;25.20;17.38;;;;;;;7.10;84.41;100581.69;4918913;29;20044;-68
2021/05/31 01:58:10;;;;;;;27.13;17.75;;;;;;;7.03;84.95;100588.84;4917836;29;20098;-69
2021/05/31 02:00:36;;;;;;;25.30;18.83;;;;;;;6.99;85.02;100592.94;4926318;29;20126;-68
2021/05/31 02:03:03;;;;;;;27.52;20.70;;;;;;;7.08;84.26;100590.94;4917273;28;20043;-68
2021/05/31 02:05:29;;;;;;;28.75;20.50;;;;;;;7.01;84.31;100589.03;4911700;29;20030;-68
2021/05/31 02:07:55;;;;;;;27.65;21.20;;;;;;;7.06;84.04;100592.97;4917119;29;20040;-69
2021/05/31 02:10:21;;;;;;;29.05;22.45;;;;;;;6.95;84.71;100583.63;4914348;29;20090;-68
2021/05/31 02:12:52;;;;;;;32.08;24.63;;;;;;;7.05;84.16;100580.63;4916691;29;20097;-68
2021/05/31 02:15:55;;;;;;;35.28;24.75;;;;;;;7.05;84.10;100575.25;4931052;29;20047;-69
2021/05/31 02:18:29;;;;;;;35.85;24.95;;;;;;;7.07;84.28;100581.25;4867935;29;20045;-68
2021/05/31 02:21:08;;;;;;;33.58;26.70;;;;;;;7.13;83.91;100583.13;4853078;29;20080;-68
2021/05/31 02:23:36;;;;;;;42.60;28.35;;;;;;;7.14;83.95;100576.75;4860566;29;20573;-68
2021/05/31 02:26:03;;;;;;;41.55;29.17;;;;;;;7.11;83.89;100577.13;4859508;29;20075;-68
2021/05/31 02:28:29;;;;;;;40.08;28.17;;;;;;;7.11;83.97;100579.81;4862709;29;20043;-68
2021/05/31 02:30:55;;;;;;;36.83;27.88;;;;;;;7.17;83.54;100582.53;4851508;29;20561;-68
2021/05/31 02:33:24;;;;;;;40.28;31.50;;;;;;;7.21;83.99;100574.91;4868476;29;20048;-68
2021/05/31 02:35:50;;;;;;;43.72;31.15;;;;;;;7.23;83.83;100577.41;4867161;29;20045;-68
2021/05/31 02:38:16;;;;;;;43.88;32.80;;;;;;;7.13;84.21;100573.25;4871905;29;20040;-68
2021/05/31 02:40:42;;;;;;;45.85;32.67;;;;;;;7.13;84.25;100565.22;4855344;29;20403;-68
2021/05/31 02:43:09;;;;;;;47.10;32.70;;;;;;;7.17;84.05;100569.16;4860288;29;20039;-68
2021/05/31 02:45:35;;;;;;;42.53;32.50;;;;;;;7.14;84.09;100560.66;4865492;29;20870;-69
2021/05/31 02:48:01;;;;;;;49.13;32.00;;;;;;;7.20;83.88;100565.22;4864979;29;20056;-69
2021/05/31 02:50:28;;;;;;;44.50;31.75;;;;;;;7.20;83.82;100565.22;4855175;29;20041;-68
2021/05/31 02:52:54;;;;;;;43.72;31.92;;;;;;;7.20;83.81;100564.41;4903993;29;20130;-68
2021/05/31 02:55:22;;;;;;;43.20;31.83;;;;;;;7.21;83.56;100566.06;4929645;28;20032;-68
2021/05/31 02:57:49;;;;;;;40.25;30.73;;;;;;;7.07;83.69;100560.66;4926226;29;20710;-70
2021/05/31 03:00:16;;;;;;;43.03;31.23;;;;;;;7.09;83.86;100561.28;4913311;29;20711;-68
2021/05/31 03:02:43;;;;;;;46.00;31.17;;;;;;;7.20;83.70;100556.38;4916192;29;20036;-68
2021/05/31 03:05:12;;;;;;;38.20;28.30;;;;;;;7.15;83.12;100549.75;4922797;29;20024;-68
2021/05/31 03:07:37;;;;;;;38.70;29.33;;;;;;;7.08;83.76;100554.28;4923772;29;20042;-68
2021/05/31 03:10:05;;;;;;;42.90;30.67;;;;;;;7.11;83.68;100547.66;4922458;29;20612;-68
2021/05/31 03:12:30;;;;;;;39.60;29.88;;;;;;;7.15;83.48;100551.59;4923761;29;20036;-68
2021/05/31 03:14:56;;;;;;;37.63;26.42;;;;;;;7.12;83.70;100536.78;4929295;29;20048;-68
2021/05/31 03:17:21;;;;;;;36.03;24.88;;;;;;;7.13;83.04;100546.47;4924474;29;20031;-68
2021/05/31 03:19:48;;;;;;;31.73;23.55;;;;;;;7.17;82.90;100534.31;4930425;29;20127;-68
2021/05/31 03:22:13;;;;;;;35.22;24.88;;;;;;;7.21;82.53;100537.41;4927782;29;20047;-68
2021/05/31 03:24:39;;;;;;;41.70;25.42;;;;;;;7.17;82.42;100537.00;4929015;29;20047;-68
2021/05/31 03:27:05;;;;;;;38.45;25.60;;;;;;;7.21;82.01;100529.38;4928871;29;20048;-68
2021/05/31 03:29:32;;;;;;;38.72;28.13;;;;;;;7.08;83.09;100530.16;4918674;29;20028;-69
2021/05/31 03:31:58;;;;;;;40.35;30.70;;;;;;;7.15;82.77;100528.34;4923951;29;20052;-69
2021/05/31 03:34:23;;;;;;;45.15;31.80;;;;;;;6.95;83.41;100525.56;4927207;28;20154;-69
2021/05/31 03:36:49;;;;;;;44.63;32.85;;;;;;;6.93;83.79;100524.94;4924873;28;20614;-69
2021/05/31 03:39:14;;;;;;;41.30;31.90;;;;;;;6.93;83.53;100522.25;4907124;29;20553;-69
2021/05/31 03:41:40;;;;;;;43.78;33.30;;;;;;;6.93;83.63;100522.25;4921906;29;20047;-68
2021/05/31 03:44:07;;;;;;;45.90;33.30;;;;;;;7.02;83.38;100523.72;4915449;29;20079;-68
2021/05/31 03:46:32;;;;;;;41.38;30.50;;;;;;;6.99;83.51;100520.63;4920142;29;20080;-68
2021/05/31 03:48:58;;;;;;;46.10;31.73;;;;;;;6.88;83.65;100522.84;4929345;29;20120;-68
2021/05/31 03:51:24;;;;;;;45.67;32.00;;;;;;;6.74;84.20;100529.16;4928435;29;20024;-68
2021/05/31 03:53:50;;;;;;;45.15;32.78;;;;;;;6.73;84.81;100517.63;4924790;28;20047;-68
2021/05/31 03:56:16;;;;;;;50.50;34.97;;;;;;;6.71;84.83;100527.72;4924036;29;20040;-68
2021/05/31 03:58:44;;;;;;;52.35;36.15;;;;;;;6.66;85.36;100530.16;4920790;29;20034;-68
2021/05/31 04:01:11;;;;;;;51.95;35.95;;;;;;;6.88;84.42;100528.19;4920977;29;20046;-68
2021/05/31 04:03:37;;;;;;;56.03;35.83;;;;;;;6.68;85.18;100530.78;4919326;29;20493;-68
2021/05/31 04:14:11;;;;;;;48.97;35.72;;;;;;;6.78;84.79;100519.69;4928373;29;19922;-68
2021/05/31 04:16:42;;;;;;;53.08;37.22;;;;;;;6.81;85.00;100519.31;4924352;29;20040;-68
2021/05/31 04:19:09;;;;;;;52.88;36.97;;;;;;;6.83;84.79;100514.56;4932773;28;20035;-68
2021/05/31 04:21:36;;;;;;;57.20;39.35;;;;;;;6.88;84.79;100519.34;4934397;29;20063;-68
2021/05/31 04:24:02;;;;;;;48.00;34.83;;;;;;;6.96;84.26;100513.81;4937245;29;20398;-68
2021/05/31 04:26:29;;;;;;;48.95;33.40;;;;;;;6.95;84.32;100520.19;4932807;29;20047;-68
2021/05/31 04:28:54;;;;;;;46.35;34.53;;;;;;;6.84;84.84;100515.41;4929078;29;20087;-68
2021/05/31 04:31:20;;;;;;;52.60;35.13;;;;;;;7.05;83.72;100514.47;4938513;29;20027;-68
2021/05/31 04:33:46;;;;;;;42.50;33.25;;;;;;;6.76;84.77;100507.56;4896529;29;20064;-68
2021/05/31 04:36:12;;;;;;;46.58;32.80;;;;;;;6.80;85.50;100519.50;4891653;29;21048;-68
2021/05/31 04:38:38;;;;;;;54.22;36.33;;;;;;;6.65;85.65;100515.13;4902483;29;20044;-69
2021/05/31 04:41:04;;;;;;;50.65;34.15;;;;;;;6.63;85.49;100519.84;4906826;29;20120;-68
2021/05/31 04:43:29;;;;;;;51.67;33.90;;;;;;;6.70;85.81;100519.88;4910579;29;20541;-68
2021/05/31 04:45:55;;;;;;;50.75;33.28;;;;;;;6.87;85.50;100512.34;4912262;29;20042;-68
2021/05/31 04:48:21;;;;;;;46.13;33.42;;;;;;;6.93;84.87;100506.19;4915574;29;20031;-68
2021/05/31 04:50:46;;;;;;;50.63;34.58;;;;;;;6.80;85.18;100514.16;4911416;29;20474;-68
2021/05/31 04:53:13;;;;;;;50.10;34.20;;;;;;;6.85;84.95;100517.06;4910811;29;20075;-68
2021/05/31 04:55:39;;;;;;;50.55;33.80;;;;;;;7.00;84.80;100512.41;4909665;29;20036;-68
2021/05/31 04:58:05;;;;;;;51.45;35.58;;;;;;;7.04;84.21;100520.84;4916312;29;20042;-68
2021/05/31 05:00:31;;;;;;;50.75;33.05;;;;;;;7.23;83.80;100521.97;4911259;29;20047;-68
2021/05/31 05:02:57;;;;;;;46.38;29.98;;;;;;;7.14;83.69;100518.66;4910486;29;20032;-69
2021/05/31 05:05:23;;;;;;;42.20;29.55;;;;;;;7.04;83.85;100526.19;4912525;29;20138;-69
2021/05/31 05:07:48;;;;;;;45.72;31.00;;;;;;;7.04;84.59;100518.16;4912891;29;20036;-69
2021/05/31 05:10:19;;;;;;;70.32;31.20;;;;;;;7.27;84.00;100514.34;4909959;29;20039;-69
2021/05/31 05:12:51;;;;;;;215.85;38.25;;;;;;;7.07;83.97;100512.44;4911571;29;20042;-68
2021/05/31 05:15:18;;;;;;;57.83;29.90;;;;;;;7.00;84.13;100509.72;4895743;29;20040;-68
2021/05/31 05:17:45;;;;;;;43.55;30.45;;;;;;;6.96;84.91;100510.31;4904970;29;20043;-68
2021/05/31 05:20:12;;;;;;;95.60;32.88;;;;;;;7.02;85.48;100513.03;4906819;29;20059;-68
2021/05/31 05:22:38;;;;;;;41.20;30.52;;;;;;;7.00;84.76;100511.56;4908304;29;20048;-68
2021/05/31 05:25:04;;;;;;;42.40;29.75;;;;;;;7.11;84.91;100510.16;4903622;29;20047;-68
2021/05/31 05:27:30;;;;;;;39.67;28.95;;;;;;;7.38;83.76;100500.38;4894505;29;20044;-69
2021/05/31 05:29:56;;;;;;;40.78;27.15;;;;;;;7.31;84.54;100510.25;4896690;29;20405;-69
2021/05/31 05:32:21;;;;;;;39.17;26.40;;;;;;;7.35;84.00;100500.78;4906293;29;20128;-69
2021/05/31 05:34:48;;;;;;;36.75;23.98;;;;;;;7.58;83.43;100503.06;4922941;29;20139;-69
2021/05/31 05:37:32;;;;;;;30.02;22.70;;;;;;;7.61;82.99;100497.28;4923211;29;20630;-69
2021/05/31 05:47:48;;;;;;;34.95;21.98;;;;;;;7.56;83.97;100501.63;4923903;29;20047;-69
2021/05/31 05:50:20;;;;;;;28.73;21.85;;;;;;;7.63;83.01;100499.78;4930461;28;20036;-68
2021/05/31 05:52:46;;;;;;;34.80;21.70;;;;;;;7.62;83.56;100498.94;4929629;28;20129;-69
2021/05/31 05:55:13;;;;;;;36.63;23.08;;;;;;;7.45;83.80;100495.00;4931045;28;20047;-68
2021/05/31 05:57:40;;;;;;;31.90;22.27;;;;;;;7.32;83.94;100496.63;4914141;29;20036;-68
2021/05/31 06:00:16;;;;;;;36.15;23.08;;;;;;;7.22;84.16;100496.19;4915297;29;20036;-68
2021/05/31 06:02:43;;;;;;;28.42;21.35;;;;;;;7.42;83.85;100495.41;4922166;28;20040;-68
2021/05/31 06:05:09;;;;;;;31.10;22.08;;;;;;;7.52;83.32;100503.06;4933809;29;20408;-68
2021/05/31 06:07:36;;;;;;;34.47;22.77;;;;;;;7.49;83.16;100506.16;4917822;29;20034;-69
2021/05/31 06:10:04;;;;;;;33.15;23.42;;;;;;;7.42;83.40;100496.25;4935427;29;20058;-69
2021/05/31 06:12:30;;;;;;;29.00;21.77;;;;;;;7.54;83.22;100491.09;4927347;29;20031;-70
2021/05/31 06:14:55;;;;;;;39.42;22.27;;;;;;;7.78;82.46;100493.41;4938981;29;20062;-69
2021/05/31 06:17:21;;;;;;;30.00;20.38;;;;;;;7.58;82.32;100495.03;4921094;28;20044;-69
2021/05/31 06:19:47;;;;;;;26.85;19.20;;;;;;;7.67;82.26;100498.34;4937673;28;20127;-69
2021/05/31 06:22:12;;;;;;;31.40;19.98;;;;;;;7.55;82.08;100492.75;4927457;29;20044;-68
2021/05/31 06:24:38;;;;;;;25.17;18.80;;;;;;;7.38;82.70;100491.47;4927690;29;20119;-68
2021/05/31 06:27:04;;;;;;;26.08;19.13;;;;;;;7.45;82.35;100493.16;4921749;29;20054;-68
2021/05/31 06:29:30;;;;;;;28.77;19.52;;;;;;;7.44;82.27;100491.50;4929208;29;20059;-68
2021/05/31 06:31:55;;;;;;;24.67;17.13;;;;;;;7.59;81.31;100488.63;4911512;29;20040;-69
2021/05/31 06:34:21;;;;;;;26.38;18.75;;;;;;;7.64;81.80;100493.41;4925062;29;20036;-68
2021/05/31 06:36:49;;;;;;;28.17;17.75;;;;;;;7.72;81.48;100495.03;4926408;29;20484;-69
2021/05/31 06:39:15;;;;;;;25.45;18.00;;;;;;;7.69;81.62;100498.97;4920583;29;20036;-68
2021/05/31 06:41:41;;;;;;;28.38;19.85;;;;;;;7.40;82.99;100486.75;4905352;29;20043;-68
2021/05/31 06:44:07;;;;;;;34.13;20.50;;;;;;;7.33;83.28;100494.78;4925991;29;20036;-68
2021/05/31 06:46:33;;;;;;;29.70;20.23;;;;;;;7.35;83.83;100494.56;4932741;28;20075;-68
2021/05/31 06:48:59;;;;;;;31.45;20.60;;;;;;;7.52;83.52;100489.66;4916532;29;20066;-71
2021/05/31 06:51:24;;;;;;;30.95;19.95;;;;;;;7.62;82.99;100490.91;4914510;29;20120;-72
2021/05/31 06:53:53;;;;;;;29.75;19.65;;;;;;;7.89;81.80;100492.78;4908091;29;20110;-72
2021/05/31 06:56:20;;;;;;;28.73;19.83;;;;;;;7.88;81.94;100488.47;4922922;29;20373;-72
2021/05/31 06:58:46;;;;;;;25.38;19.10;;;;;;;7.75;81.98;100494.63;4923630;29;20808;-72
2021/05/31 07:01:13;;;;;;;28.10;19.98;;;;;;;7.67;82.22;100497.50;4931425;28;20039;-73
2021/05/31 07:03:39;;;;;;;32.95;21.50;;;;;;;7.71;82.69;100501.44;4919515;29;20540;-72
2021/05/31 07:06:08;;;;;;;29.17;20.83;;;;;;;7.76;82.15;100501.63;4916868;29;20027;-72
2021/05/31 07:08:38;;;;;;;34.22;20.05;;;;;;;7.78;82.09;100501.44;4919854;29;20043;-71
2021/05/31 07:11:10;;;;;;;27.80;19.63;;;;;;;8.02;81.21;100500.03;4917987;29;20035;-71
2021/05/31 07:13:36;;;;;;;28.80;20.85;;;;;;;7.99;81.68;100500.44;4919953;29;20044;-72
2021/05/31 07:16:01;;;;;;;28.00;19.88;;;;;;;7.93;82.09;100482.47;4926525;29;20035;-70
2021/05/31 07:18:27;;;;;;;29.92;21.02;;;;;;;8.15;80.87;100488.44;4925027;29;20046;-71
2021/05/31 07:20:53;;;;;;;29.80;18.90;;;;;;;8.48;79.63;100484.88;4926585;28;20397;-71
2021/05/31 07:23:20;;;;;;;25.77;17.98;;;;;;;8.92;77.75;100483.34;4916234;29;20493;-70
2021/05/31 07:25:46;;;;;;;26.08;19.13;;;;;;;8.65;78.44;100487.97;4917511;29;20048;-70
2021/05/31 07:28:14;;;;;;;30.60;19.13;;;;;;;8.76;79.09;100481.94;4920366;29;20038;-73
2021/05/31 07:30:40;;;;;;;30.27;19.00;;;;;;;8.85;77.68;100474.47;4927454;29;20497;-72
2021/05/31 07:33:09;;;;;;;26.42;18.88;;;;;;;8.70;77.67;100481.94;4920749;28;20055;-72
2021/05/31 07:35:36;;;;;;;23.42;18.38;;;;;;;8.63;78.80;100479.31;4927809;29;20028;-72
2021/05/31 07:38:02;;;;;;;27.90;18.73;;;;;;;8.63;78.35;100479.31;4922600;29;20028;-72
2021/05/31 07:40:28;;;;;;;30.88;20.10;;;;;;;8.67;78.39;100475.16;4923124;29;20027;-73
2021/05/31 07:42:53;;;;;;;25.73;18.48;;;;;;;8.56;79.01;100479.31;4924393;29;20031;-70
2021/05/31 07:45:19;;;;;;;26.48;18.13;;;;;;;8.78;78.54;100468.28;4923914;29;20040;-74
2021/05/31 07:47:48;;;;;;;24.08;16.98;;;;;;;9.20;76.11;100470.56;4918832;29;20039;-73
2021/05/31 07:50:15;;;;;;;27.30;18.35;;;;;;;9.20;75.17;100467.88;4915023;29;20124;-73
2021/05/31 07:52:41;;;;;;;25.88;17.27;;;;;;;9.38;74.88;100469.88;4920883;29;20553;-74
2021/05/31 07:55:11;;;;;;;26.05;17.45;;;;;;;9.68;74.61;100463.84;4916972;29;20040;-72
2021/05/31 07:57:39;;;;;;;22.27;16.27;;;;;;;9.75;73.25;100455.75;4927327;29;20489;-73
2021/05/31 08:00:09;;;;;;;23.30;16.45;;;;;;;10.15;71.46;100458.09;4926999;29;20042;-72
2021/05/31 08:02:36;;;;;;;20.80;16.20;;;;;;;9.46;74.02;100455.31;4925010;29;20031;-74
2021/05/31 08:05:02;;;;;;;26.58;18.05;;;;;;;8.89;76.40;100453.38;4919837;29;20036;-72
2021/05/31 08:07:27;;;;;;;24.13;17.65;;;;;;;9.38;75.07;100459.09;4924727;29;20090;-73
2021/05/31 08:09:53;;;;;;;32.80;16.30;;;;;;;9.50;74.93;100453.84;4928403;29;20402;-72
2021/05/31 08:12:19;;;;;;;25.25;17.38;;;;;;;9.72;74.76;100459.69;4922510;29;20051;-72
2021/05/31 08:14:44;;;;;;;26.60;16.77;;;;;;;9.99;73.13;100459.47;4921765;28;20048;-73
2021/05/31 08:17:11;;;;;;;38.72;17.50;;;;;;;10.08;72.52;100450.06;4913123;29;20031;-73
2021/05/31 08:19:37;;;;;;;23.77;16.90;;;;;;;10.05;73.52;100455.06;4921479;29;20128;-73
2021/05/31 08:22:04;;;;;;;25.02;16.48;;;;;;;10.24;72.58;100453.22;4923634;29;20118;-72
2021/05/31 08:24:29;;;;;;;21.92;16.15;;;;;;;10.64;71.50;100454.69;4918868;29;20032;-72
2021/05/31 08:26:55;;;;;;;21.27;16.55;;;;;;;10.63;70.79;100463.81;4928634;29;20039;-72
2021/05/31 08:29:21;;;;;;;20.05;16.05;;;;;;;10.97;70.49;100458.84;4918289;29;20040;-72
2021/05/31 08:31:49;;;;;;;25.40;16.00;;;;;;;11.21;68.41;100456.25;4916470;29;20052;-72
2021/05/31 08:34:14;;;;;;;21.25;15.73;;;;;;;10.81;70.09;100453.03;4915232;29;20490;-71
2021/05/31 08:36:41;;;;;;;25.10;15.27;;;;;;;10.84;71.07;100454.47;4909789;28;20107;-71
2021/05/31 08:39:09;;;;;;;23.83;15.60;;;;;;;11.13;70.14;100457.41;4919490;29;20039;-72
2021/05/31 08:41:35;;;;;;;24.98;15.60;;;;;;;10.94;70.00;100456.59;4928412;28;20059;-71
2021/05/31 08:44:01;;;;;;;23.08;15.95;;;;;;;10.95;70.70;100447.47;4926584;29;20047;-72
2021/05/31 08:46:26;;;;;;;26.13;15.77;;;;;;;11.15;69.27;100454.47;4929992;29;20416;-72
2021/05/31 08:48:52;;;;;;;25.23;16.83;;;;;;;10.81;70.99;100439.56;4924817;28;20095;-72
2021/05/31 08:51:21;;;;;;;25.90;16.48;;;;;;;10.76;70.58;100441.31;4926536;29;20039;-72
2021/05/31 08:53:47;;;;;;;24.17;16.00;;;;;;;10.83;71.04;100444.72;4922968;29;20028;-73
2021/05/31 08:56:13;;;;;;;26.88;15.70;;;;;;;10.46;72.71;100440.19;4924123;29;21780;-72
2021/05/31 08:58:39;;;;;;;26.60;16.67;;;;;;;10.86;71.98;100444.28;4929651;29;20038;-70
2021/05/31 09:01:04;;;;;;;26.35;16.77;;;;;;;10.81;71.09;100436.84;4927339;29;20028;-71
2021/05/31 09:03:31;;;;;;;29.55;16.73;;;;;;;10.58;72.41;100448.31;4918339;29;20035;-73
2021/05/31 09:06:02;;;;;;;24.58;16.80;;;;;;;10.86;71.74;100438.06;4930550;28;20044;-71
2021/05/31 09:08:28;;;;;;;25.50;17.00;;;;;;;10.68;72.48;100440.56;4912385;28;20059;-70
2021/05/31 09:11:01;;;;;;;23.27;16.15;;;;;;;11.03;71.92;100441.75;4928289;29;20055;-72
2021/05/31 09:13:27;;;;;;;23.80;15.50;;;;;;;10.92;71.88;100446.06;4929322;29;20109;-70
2021/05/31 09:16:06;;;;;;;27.35;18.45;;;;;;;10.57;72.93;100438.59;4930575;29;20544;-72
2021/05/31 09:18:34;;;;;;;29.45;17.35;;;;;;;10.79;72.47;100430.88;4932039;28;21052;-71
2021/05/31 09:21:19;;;;;;;28.20;17.77;;;;;;;10.69;72.96;100434.13;4935698;29;20118;-71
2021/05/31 09:23:47;;;;;;;22.88;15.98;;;;;;;11.28;70.89;100440.78;4934405;29;20055;-72
2021/05/31 09:26:14;;;;;;;25.63;15.77;;;;;;;11.78;69.38;100436.09;4939452;29;20393;-72
2021/05/31 09:28:44;;;;;;;29.75;16.70;;;;;;;11.56;69.68;100445.56;4930571;29;20028;-71
2021/05/31 09:31:17;;;;;;;28.63;17.45;;;;;;;11.53;69.53;100437.13;4932635;29;20035;-71
2021/05/31 09:33:43;;;;;;;27.40;17.15;;;;;;;11.18;70.96;100440.53;4923146;29;20044;-71
2021/05/31 09:36:10;;;;;;;25.83;17.00;;;;;;;11.14;71.33;100437.47;4916638;29;20036;-71
2021/05/31 09:38:49;;;;;;;29.98;16.92;;;;;;;11.47;71.32;100432.63;4911260;29;20099;-71
2021/05/31 09:41:30;;;;;;;29.67;16.38;;;;;;;11.51;69.76;100434.63;4926159;29;20506;-71
2021/05/31 09:44:07;;;;;;;20.02;15.38;;;;;;;12.20;68.15;100425.19;4569559;29;10000159;-71
2021/05/31 09:46:37;;;;;;;24.13;16.65;;;;;;;12.00;68.58;100433.66;4911873;29;20032;-72
2021/05/31 09:49:10;;;;;;;25.98;16.58;;;;;;;12.39;67.43;100425.88;4913635;29;20036;-72
2021/05/31 09:51:53;;;;;;;22.05;15.93;;;;;;;12.25;67.88;100433.41;4912070;29;20027;-71
2021/05/31 09:54:25;;;;;;;19.75;15.73;;;;;;;12.10;67.41;100436.59;4921093;29;20118;-71
2021/05/31 09:56:52;;;;;;;29.73;17.85;;;;;;;11.96;68.65;100430.59;4931220;29;20044;-71
2021/05/31 09:59:19;;;;;;;24.40;16.85;;;;;;;12.18;67.50;100427.31;4924126;29;20036;-71
2021/05/31 10:01:45;;;;;;;24.17;17.80;;;;;;;11.71;69.48;100430.78;4928199;29;20040;-71
2021/05/31 10:06:51;;;;;;;30.80;19.48;;;;;;;12.07;68.97;100417.34;4941072;28;20047;-70
2021/05/31 10:09:17;;;;;;;28.70;20.23;;;;;;;12.32;68.71;100410.84;4928065;29;20450;-71
2021/05/31 10:11:45;;;;;;;29.38;19.83;;;;;;;12.81;66.66;100414.00;4916623;29;20055;-72
2021/05/31 10:14:14;;;;;;;29.55;18.85;;;;;;;13.32;65.89;100421.44;4932341;29;20920;-71
2021/05/31 10:16:41;;;;;;;24.90;17.90;;;;;;;13.58;63.72;100422.69;4917967;29;20047;-72
2021/05/31 10:19:07;;;;;;;27.58;18.23;;;;;;;14.06;62.67;100419.63;4928867;29;20103;-72
2021/05/31 10:21:33;;;;;;;24.73;19.13;;;;;;;13.04;64.68;100417.66;4928859;29;20091;-71
2021/05/31 10:23:59;;;;;;;25.63;19.77;;;;;;;12.71;67.10;100405.69;4932056;29;20064;-71
2021/05/31 10:26:29;;;;;;;28.60;20.52;;;;;;;12.85;66.75;100407.06;4933037;29;20051;-71
2021/05/31 10:28:55;;;;;;;28.73;20.27;;;;;;;12.84;67.92;100408.13;4915121;29;20600;-72
2021/05/31 10:31:21;;;;;;;33.38;19.80;;;;;;;12.97;67.91;100404.31;4922911;28;20126;-71
2021/05/31 10:34:00;;;;;;;26.52;19.25;;;;;;;13.34;65.76;100411.19;4905704;29;20044;-71
2021/05/31 10:36:33;;;;;;;30.20;19.73;;;;;;;13.20;66.45;100405.25;4921277;29;20039;-71
2021/05/31 10:39:04;;;;;;;35.03;20.08;;;;;;;13.44;65.85;100403.28;4938867;28;20122;-71
2021/05/31 10:41:31;;;;;;;28.90;18.92;;;;;;;13.44;65.65;100403.28;4928193;29;20094;-71
2021/05/31 10:43:59;;;;;;;24.80;16.95;;;;;;;13.67;63.88;100408.75;4930476;29;20086;-71
2021/05/31 10:46:27;;;;;;;27.98;17.40;;;;;;;13.76;65.44;100409.97;4919301;29;20044;-70
2021/05/31 10:48:53;;;;;;;26.05;17.88;;;;;;;14.34;64.09;100405.09;4924699;29;20074;-70
2021/05/31 10:51:26;;;;;;;24.48;16.23;;;;;;;14.49;62.97;100404.50;4921514;29;20071;-71
2021/05/31 10:53:55;;;;;;;27.38;16.67;;;;;;;14.40;62.99;100399.75;4926480;29;20507;-71
2021/05/31 10:56:22;;;;;;;28.15;16.98;;;;;;;13.92;63.58;100400.22;4919096;29;20044;-70
2021/05/31 10:58:50;;;;;;;26.08;17.27;;;;;;;13.74;64.36;100390.44;4919270;29;20048;-71
2021/05/31 11:01:40;;;;;;;24.42;15.80;;;;;;;13.81;65.05;100396.50;4923363;29;20040;-71
2021/05/31 11:04:33;;;;;;;25.75;17.63;;;;;;;13.89;65.00;100389.88;4919876;29;20039;-70
2021/05/31 11:07:01;;;;;;;23.48;16.17;;;;;;;14.24;64.03;100391.44;4922576;29;20066;-70
2021/05/31 11:09:34;;;;;;;20.00;15.63;;;;;;;14.69;62.27;100386.00;4927028;29;20039;-71
2021/05/31 11:12:05;;;;;;;21.65;16.08;;;;;;;14.78;62.47;100373.66;4931171;29;20031;-71
2021/05/31 11:14:36;;;;;;;25.42;16.15;;;;;;;14.23;63.37;100378.16;4936267;29;20031;-71
2021/05/31 11:17:08;;;;;;;25.60;16.40;;;;;;;14.27;64.72;100365.75;4928300;29;20036;-70
2021/05/31 11:19:37;;;;;;;22.00;16.38;;;;;;;13.77;65.35;100365.59;4919212;29;20101;-70
2021/05/31 11:22:33;;;;;;;27.25;16.67;;;;;;;13.67;65.48;100360.03;4930507;29;20539;-71
2021/05/31 11:25:05;;;;;;;23.17;16.60;;;;;;;13.35;67.33;100358.72;4924323;29;20059;-70
2021/05/31 11:27:34;;;;;;;31.98;19.15;;;;;;;13.15;67.48;100367.31;4923637;29;20032;-71
2021/05/31 11:30:02;;;;;;;21.48;17.65;;;;;;;12.99;68.70;100360.78;4920073;29;20163;-71
2021/05/31 11:32:29;;;;;;;32.22;18.30;;;;;;;13.23;68.73;100353.38;4926385;28;20036;-72
2021/05/31 11:35:00;;;;;;;25.52;17.60;;;;;;;13.50;67.88;100351.94;4926516;29;20080;-71
2021/05/31 11:37:28;;;;;;;24.10;17.40;;;;;;;13.75;67.24;100355.03;4922030;29;20028;-71